sensor_id;sensor_type;location;lat;lon;timestamp;temperature;humidity
5802;DHT22;2927;49.366;8.530;2023-01-26T00:01:11;1.00;99.90
5802;DHT22;2927;49.366;8.530;2023-01-26T00:03:37;1.00;99.90
5802;DHT22;2927;49.366;8.530;2023-01-26T00:06:04;0.90;99.90
5802;DHT22;2927;49.366;8.530;2023-01-26T00:08:34;0.90;99.90
5802;DHT22;2927;49.366;8.530;2023-01-26T00:11:02;0.90;99.90
5802;DHT22;2927;49.366;8.530;2023-01-26T00:13:28;1.00;99.90
5802;DHT22;2927;49.366;8.530;2023-01-26T00:15:53;0.90;99.90
5802;DHT22;2927;49.366;8.530;2023-01-26T00:18:19;1.00;99.90
5802;DHT22;2927;49.366;8.530;2023-01-26T00:20:44;1.10;99.90
5802;DHT22;2927;49.366;8.530;2023-01-26T00:23:10;1.10;99.90
5802;DHT22;2927;49.366;8.530;2023-01-26T00:25:37;1.00;99.90
5802;DHT22;2927;49.366;8.530;2023-01-26T00:28:04;0.90;99.90
5802;DHT22;2927;49.366;8.530;2023-01-26T00:30:30;1.00;99.90
5802;DHT22;2927;49.366;8.530;2023-01-26T00:32:55;1.00;99.90
5802;DHT22;2927;49.366;8.530;2023-01-26T00:35:22;0.90;99.90
5802;DHT22;2927;49.366;8.530;2023-01-26T00:37:48;0.90;99.90
5802;DHT22;2927;49.366;8.530;2023-01-26T00:40:13;0.90;99.90
5802;DHT22;2927;49.366;8.530;2023-01-26T00:42:39;1.00;99.90
5802;DHT22;2927;49.366;8.530;2023-01-26T00:45:05;0.90;99.90
5802;DHT22;2927;49.366;8.530;2023-01-26T00:47:31;0.90;99.90
5802;DHT22;2927;49.366;8.530;2023-01-26T00:49:56;1.10;99.90
5802;DHT22;2927;49.366;8.530;2023-01-26T00:52:22;1.00;99.90
5802;DHT22;2927;49.366;8.530;2023-01-26T00:54:47;0.90;99.90
5802;DHT22;2927;49.366;8.530;2023-01-26T00:57:13;0.80;99.90
5802;DHT22;2927;49.366;8.530;2023-01-26T00:59:38;0.70;99.90
5802;DHT22;2927;49.366;8.530;2023-01-26T01:02:04;0.60;99.90
5802;DHT22;2927;49.366;8.530;2023-01-26T01:04:30;0.60;99.90
5802;DHT22;2927;49.366;8.530;2023-01-26T01:06:56;0.60;99.90
5802;DHT22;2927;49.366;8.530;2023-01-26T01:09:22;0.60;99.90
5802;DHT22;2927;49.366;8.530;2023-01-26T01:11:47;0.50;99.90
5802;DHT22;2927;49.366;8.530;2023-01-26T01:14:13;0.60;99.90
5802;DHT22;2927;49.366;8.530;2023-01-26T01:16:39;0.50;99.90
5802;DHT22;2927;49.366;8.530;2023-01-26T01:19:06;0.50;99.90
5802;DHT22;2927;49.366;8.530;2023-01-26T01:21:32;0.50;99.90
5802;DHT22;2927;49.366;8.530;2023-01-26T01:23:58;0.50;99.90
5802;DHT22;2927;49.366;8.530;2023-01-26T01:26:25;0.50;99.90
5802;DHT22;2927;49.366;8.530;2023-01-26T01:28:53;0.60;99.90
5802;DHT22;2927;49.366;8.530;2023-01-26T01:31:20;0.50;99.90
5802;DHT22;2927;49.366;8.530;2023-01-26T01:33:46;0.50;99.90
5802;DHT22;2927;49.366;8.530;2023-01-26T01:36:14;0.50;99.90
5802;DHT22;2927;49.366;8.530;2023-01-26T01:38:40;0.50;99.90
5802;DHT22;2927;49.366;8.530;2023-01-26T01:41:06;0.50;99.90
5802;DHT22;2927;49.366;8.530;2023-01-26T01:43:33;0.50;99.90
5802;DHT22;2927;49.366;8.530;2023-01-26T01:46:00;0.50;99.90
5802;DHT22;2927;49.366;8.530;2023-01-26T01:48:41;0.50;99.90
5802;DHT22;2927;49.366;8.530;2023-01-26T01:51:17;0.50;99.90
5802;DHT22;2927;49.366;8.530;2023-01-26T01:53:47;0.50;99.90
5802;DHT22;2927;49.366;8.530;2023-01-26T01:56:20;0.50;99.90
5802;DHT22;2927;49.366;8.530;2023-01-26T01:58:49;0.50;99.90
5802;DHT22;2927;49.366;8.530;2023-01-26T02:01:17;0.40;99.90
5802;DHT22;2927;49.366;8.530;2023-01-26T02:03:44;0.40;99.90
5802;DHT22;2927;49.366;8.530;2023-01-26T02:06:13;0.40;99.90
5802;DHT22;2927;49.366;8.530;2023-01-26T02:08:52;0.40;99.90
5802;DHT22;2927;49.366;8.530;2023-01-26T02:11:26;0.40;99.90
5802;DHT22;2927;49.366;8.530;2023-01-26T02:13:53;0.30;99.90
5802;DHT22;2927;49.366;8.530;2023-01-26T02:16:19;0.40;99.90
5802;DHT22;2927;49.366;8.530;2023-01-26T02:18:45;0.30;99.90
5802;DHT22;2927;49.366;8.530;2023-01-26T02:21:14;0.30;99.90
5802;DHT22;2927;49.366;8.530;2023-01-26T02:24:09;0.30;99.90
5802;DHT22;2927;49.366;8.530;2023-01-26T02:36:29;0.50;99.90
5802;DHT22;2927;49.366;8.530;2023-01-26T02:39:13;0.50;99.90
5802;DHT22;2927;49.366;8.530;2023-01-26T02:41:42;0.40;99.90
5802;DHT22;2927;49.366;8.530;2023-01-26T02:44:31;0.60;99.90
5802;DHT22;2927;49.366;8.530;2023-01-26T02:46:57;0.60;99.90
5802;DHT22;2927;49.366;8.530;2023-01-26T02:49:22;0.50;99.90
5802;DHT22;2927;49.366;8.530;2023-01-26T02:52:07;0.50;99.90
5802;DHT22;2927;49.366;8.530;2023-01-26T02:54:32;0.50;99.90
5802;DHT22;2927;49.366;8.530;2023-01-26T02:57:17;0.50;99.90
5802;DHT22;2927;49.366;8.530;2023-01-26T02:59:42;0.40;99.90
5802;DHT22;2927;49.366;8.530;2023-01-26T03:02:08;0.40;99.90
5802;DHT22;2927;49.366;8.530;2023-01-26T03:04:34;0.40;99.90
5802;DHT22;2927;49.366;8.530;2023-01-26T03:06:59;0.40;99.90
5802;DHT22;2927;49.366;8.530;2023-01-26T03:09:25;0.40;99.90
5802;DHT22;2927;49.366;8.530;2023-01-26T03:11:50;0.40;99.90
5802;DHT22;2927;49.366;8.530;2023-01-26T03:14:16;0.40;99.90
5802;DHT22;2927;49.366;8.530;2023-01-26T03:16:42;0.40;99.90
5802;DHT22;2927;49.366;8.530;2023-01-26T03:19:12;0.30;99.90
5802;DHT22;2927;49.366;8.530;2023-01-26T03:21:56;0.20;99.90
5802;DHT22;2927;49.366;8.530;2023-01-26T03:24:40;0.30;99.90
5802;DHT22;2927;49.366;8.530;2023-01-26T03:27:44;0.30;99.90
5802;DHT22;2927;49.366;8.530;2023-01-26T03:30:11;0.30;99.90
5802;DHT22;2927;49.366;8.530;2023-01-26T03:32:37;0.30;99.90
5802;DHT22;2927;49.366;8.530;2023-01-26T03:35:03;0.30;99.90
5802;DHT22;2927;49.366;8.530;2023-01-26T03:37:29;0.40;99.90
5802;DHT22;2927;49.366;8.530;2023-01-26T03:39:58;0.40;99.90
5802;DHT22;2927;49.366;8.530;2023-01-26T03:42:43;0.40;99.90
5802;DHT22;2927;49.366;8.530;2023-01-26T03:45:27;0.30;99.90
5802;DHT22;2927;49.366;8.530;2023-01-26T03:48:11;0.30;99.90
5802;DHT22;2927;49.366;8.530;2023-01-26T03:50:56;0.20;99.90
5802;DHT22;2927;49.366;8.530;2023-01-26T03:53:40;0.30;99.90
5802;DHT22;2927;49.366;8.530;2023-01-26T03:56:25;0.20;99.90
5802;DHT22;2927;49.366;8.530;2023-01-26T03:58:57;0.30;99.90
5802;DHT22;2927;49.366;8.530;2023-01-26T04:01:36;0.30;99.90
5802;DHT22;2927;49.366;8.530;2023-01-26T04:04:02;0.40;99.90
5802;DHT22;2927;49.366;8.530;2023-01-26T04:06:48;0.30;99.90
5802;DHT22;2927;49.366;8.530;2023-01-26T04:09:33;0.30;99.90
5802;DHT22;2927;49.366;8.530;2023-01-26T04:12:01;0.40;99.90
5802;DHT22;2927;49.366;8.530;2023-01-26T04:14:27;0.40;99.90
5802;DHT22;2927;49.366;8.530;2023-01-26T04:17:11;0.30;99.90
5802;DHT22;2927;49.366;8.530;2023-01-26T04:19:54;0.30;99.90
5802;DHT22;2927;49.366;8.530;2023-01-26T04:22:39;0.30;99.90
5802;DHT22;2927;49.366;8.530;2023-01-26T04:25:11;0.40;99.90
5802;DHT22;2927;49.366;8.530;2023-01-26T04:27:38;0.30;99.90
5802;DHT22;2927;49.366;8.530;2023-01-26T04:30:05;0.30;99.90
5802;DHT22;2927;49.366;8.530;2023-01-26T04:32:31;0.30;99.90
5802;DHT22;2927;49.366;8.530;2023-01-26T04:34:57;0.30;99.90
5802;DHT22;2927;49.366;8.530;2023-01-26T04:37:22;0.30;99.90
5802;DHT22;2927;49.366;8.530;2023-01-26T04:39:47;0.30;99.90
5802;DHT22;2927;49.366;8.530;2023-01-26T04:42:13;0.30;99.90
5802;DHT22;2927;49.366;8.530;2023-01-26T04:44:38;0.30;99.90
5802;DHT22;2927;49.366;8.530;2023-01-26T04:47:04;0.30;99.90
5802;DHT22;2927;49.366;8.530;2023-01-26T04:49:29;0.30;99.90
5802;DHT22;2927;49.366;8.530;2023-01-26T04:51:55;0.10;99.90
5802;DHT22;2927;49.366;8.530;2023-01-26T04:54:21;0.10;99.90
5802;DHT22;2927;49.366;8.530;2023-01-26T04:56:46;0.10;99.90
5802;DHT22;2927;49.366;8.530;2023-01-26T04:59:12;0.10;99.90
5802;DHT22;2927;49.366;8.530;2023-01-26T05:01:39;0.10;99.90
5802;DHT22;2927;49.366;8.530;2023-01-26T05:04:05;0.10;99.90
5802;DHT22;2927;49.366;8.530;2023-01-26T05:06:31;0.10;99.90
5802;DHT22;2927;49.366;8.530;2023-01-26T05:08:57;0.10;99.90
5802;DHT22;2927;49.366;8.530;2023-01-26T05:11:23;0.10;99.90
5802;DHT22;2927;49.366;8.530;2023-01-26T05:13:48;0.10;99.90
5802;DHT22;2927;49.366;8.530;2023-01-26T05:16:14;0.10;99.90
5802;DHT22;2927;49.366;8.530;2023-01-26T05:18:40;0.10;99.90
5802;DHT22;2927;49.366;8.530;2023-01-26T05:21:06;0.20;99.90
5802;DHT22;2927;49.366;8.530;2023-01-26T05:23:32;0.20;99.90
5802;DHT22;2927;49.366;8.530;2023-01-26T05:25:57;0.20;99.90
5802;DHT22;2927;49.366;8.530;2023-01-26T05:28:23;0.10;99.90
5802;DHT22;2927;49.366;8.530;2023-01-26T05:30:49;0.20;99.90
5802;DHT22;2927;49.366;8.530;2023-01-26T05:33:14;0.30;99.90
5802;DHT22;2927;49.366;8.530;2023-01-26T05:35:41;0.40;99.90
5802;DHT22;2927;49.366;8.530;2023-01-26T05:38:07;0.30;99.90
5802;DHT22;2927;49.366;8.530;2023-01-26T05:40:32;0.20;99.90
5802;DHT22;2927;49.366;8.530;2023-01-26T05:42:58;0.20;99.90
5802;DHT22;2927;49.366;8.530;2023-01-26T05:45:23;0.20;99.90
5802;DHT22;2927;49.366;8.530;2023-01-26T05:47:49;0.30;99.90
5802;DHT22;2927;49.366;8.530;2023-01-26T05:50:15;0.20;99.90
5802;DHT22;2927;49.366;8.530;2023-01-26T05:52:42;0.30;99.90
5802;DHT22;2927;49.366;8.530;2023-01-26T05:55:08;0.30;99.90
5802;DHT22;2927;49.366;8.530;2023-01-26T05:57:34;0.30;99.90
5802;DHT22;2927;49.366;8.530;2023-01-26T06:00:01;0.40;99.90
5802;DHT22;2927;49.366;8.530;2023-01-26T06:02:26;0.50;99.90
5802;DHT22;2927;49.366;8.530;2023-01-26T06:04:52;0.50;99.90
5802;DHT22;2927;49.366;8.530;2023-01-26T06:07:18;0.60;99.90
5802;DHT22;2927;49.366;8.530;2023-01-26T06:09:43;0.70;99.90
5802;DHT22;2927;49.366;8.530;2023-01-26T06:12:18;0.60;99.90
5802;DHT22;2927;49.366;8.530;2023-01-26T06:14:44;0.50;99.90
5802;DHT22;2927;49.366;8.530;2023-01-26T06:17:10;0.50;99.90
5802;DHT22;2927;49.366;8.530;2023-01-26T06:19:36;0.40;99.90
5802;DHT22;2927;49.366;8.530;2023-01-26T06:22:02;0.50;99.90
5802;DHT22;2927;49.366;8.530;2023-01-26T06:24:28;0.40;99.90
5802;DHT22;2927;49.366;8.530;2023-01-26T06:26:54;0.50;99.90
5802;DHT22;2927;49.366;8.530;2023-01-26T06:29:20;0.50;99.90
5802;DHT22;2927;49.366;8.530;2023-01-26T06:31:45;0.50;99.90
5802;DHT22;2927;49.366;8.530;2023-01-26T06:34:11;0.50;99.90
5802;DHT22;2927;49.366;8.530;2023-01-26T06:36:36;0.50;99.90
5802;DHT22;2927;49.366;8.530;2023-01-26T06:39:02;0.50;99.90
5802;DHT22;2927;49.366;8.530;2023-01-26T06:41:27;0.50;99.90
5802;DHT22;2927;49.366;8.530;2023-01-26T06:43:53;0.40;99.90
5802;DHT22;2927;49.366;8.530;2023-01-26T06:46:19;0.40;99.90
5802;DHT22;2927;49.366;8.530;2023-01-26T06:48:45;0.40;99.90
5802;DHT22;2927;49.366;8.530;2023-01-26T06:53:55;0.40;99.90
5802;DHT22;2927;49.366;8.530;2023-01-26T06:56:22;0.40;99.90
5802;DHT22;2927;49.366;8.530;2023-01-26T06:58:48;0.40;99.90
5802;DHT22;2927;49.366;8.530;2023-01-26T07:01:16;0.40;99.90
5802;DHT22;2927;49.366;8.530;2023-01-26T07:03:42;0.50;99.90
5802;DHT22;2927;49.366;8.530;2023-01-26T07:06:08;0.50;99.90
5802;DHT22;2927;49.366;8.530;2023-01-26T07:08:36;0.50;99.90
5802;DHT22;2927;49.366;8.530;2023-01-26T07:11:02;0.40;99.90
5802;DHT22;2927;49.366;8.530;2023-01-26T07:13:29;0.50;99.90
5802;DHT22;2927;49.366;8.530;2023-01-26T07:18:26;0.40;99.90
5802;DHT22;2927;49.366;8.530;2023-01-26T07:20:52;0.50;99.90
5802;DHT22;2927;49.366;8.530;2023-01-26T07:23:17;0.40;99.90
5802;DHT22;2927;49.366;8.530;2023-01-26T07:25:43;0.50;99.90
5802;DHT22;2927;49.366;8.530;2023-01-26T07:28:08;0.50;99.90
5802;DHT22;2927;49.366;8.530;2023-01-26T07:30:35;0.50;99.90
5802;DHT22;2927;49.366;8.530;2023-01-26T07:33:00;0.50;99.90
5802;DHT22;2927;49.366;8.530;2023-01-26T07:35:26;0.50;99.90
5802;DHT22;2927;49.366;8.530;2023-01-26T07:37:53;0.50;99.90
5802;DHT22;2927;49.366;8.530;2023-01-26T07:40:19;0.60;99.90
5802;DHT22;2927;49.366;8.530;2023-01-26T07:42:45;0.50;99.90
5802;DHT22;2927;49.366;8.530;2023-01-26T07:45:11;0.50;99.90
5802;DHT22;2927;49.366;8.530;2023-01-26T07:47:37;0.40;99.90
5802;DHT22;2927;49.366;8.530;2023-01-26T07:50:03;0.50;99.90
5802;DHT22;2927;49.366;8.530;2023-01-26T07:52:28;0.50;99.90
5802;DHT22;2927;49.366;8.530;2023-01-26T07:54:54;0.50;99.90
5802;DHT22;2927;49.366;8.530;2023-01-26T07:57:19;0.50;99.90
5802;DHT22;2927;49.366;8.530;2023-01-26T07:59:45;0.50;99.90
5802;DHT22;2927;49.366;8.530;2023-01-26T08:02:10;0.50;99.90
5802;DHT22;2927;49.366;8.530;2023-01-26T08:04:36;0.60;99.90
5802;DHT22;2927;49.366;8.530;2023-01-26T08:07:01;0.60;99.90
5802;DHT22;2927;49.366;8.530;2023-01-26T08:09:27;0.50;99.90
5802;DHT22;2927;49.366;8.530;2023-01-26T08:11:55;0.40;99.90
5802;DHT22;2927;49.366;8.530;2023-01-26T08:14:21;0.40;99.90
5802;DHT22;2927;49.366;8.530;2023-01-26T08:16:47;0.40;99.90
5802;DHT22;2927;49.366;8.530;2023-01-26T08:19:12;0.30;99.90
5802;DHT22;2927;49.366;8.530;2023-01-26T08:21:38;0.30;99.90
5802;DHT22;2927;49.366;8.530;2023-01-26T08:24:03;0.10;99.90
5802;DHT22;2927;49.366;8.530;2023-01-26T08:26:29;0.20;99.90
5802;DHT22;2927;49.366;8.530;2023-01-26T08:28:54;0.20;99.90
5802;DHT22;2927;49.366;8.530;2023-01-26T08:31:20;0.10;99.90
5802;DHT22;2927;49.366;8.530;2023-01-26T08:33:48;0.10;99.90
5802;DHT22;2927;49.366;8.530;2023-01-26T08:36:15;0.20;99.90
5802;DHT22;2927;49.366;8.530;2023-01-26T08:38:41;0.20;99.90
5802;DHT22;2927;49.366;8.530;2023-01-26T08:41:08;0.10;99.90
5802;DHT22;2927;49.366;8.530;2023-01-26T08:43:34;0.10;99.90
5802;DHT22;2927;49.366;8.530;2023-01-26T08:46:00;0.20;99.90
5802;DHT22;2927;49.366;8.530;2023-01-26T08:48:26;0.10;99.90
5802;DHT22;2927;49.366;8.530;2023-01-26T08:50:59;0.10;99.90
5802;DHT22;2927;49.366;8.530;2023-01-26T08:53:25;0.10;99.90
5802;DHT22;2927;49.366;8.530;2023-01-26T08:55:51;0.10;99.90
5802;DHT22;2927;49.366;8.530;2023-01-26T08:58:17;0.10;99.90
5802;DHT22;2927;49.366;8.530;2023-01-26T09:00:43;0.10;99.90
5802;DHT22;2927;49.366;8.530;2023-01-26T09:03:08;0.10;99.90
5802;DHT22;2927;49.366;8.530;2023-01-26T09:05:36;0.10;99.90
5802;DHT22;2927;49.366;8.530;2023-01-26T09:08:07;0.10;99.90
5802;DHT22;2927;49.366;8.530;2023-01-26T09:10:33;0.00;99.90
5802;DHT22;2927;49.366;8.530;2023-01-26T09:12:59;-0.10;99.90
5802;DHT22;2927;49.366;8.530;2023-01-26T09:15:25;-0.10;99.90
5802;DHT22;2927;49.366;8.530;2023-01-26T09:17:51;-0.10;99.90
5802;DHT22;2927;49.366;8.530;2023-01-26T09:20:17;0.00;99.90
5802;DHT22;2927;49.366;8.530;2023-01-26T09:22:43;0.00;99.90
5802;DHT22;2927;49.366;8.530;2023-01-26T09:25:10;-0.10;99.90
5802;DHT22;2927;49.366;8.530;2023-01-26T09:27:35;-0.10;99.90
5802;DHT22;2927;49.366;8.530;2023-01-26T09:30:02;-0.20;99.90
5802;DHT22;2927;49.366;8.530;2023-01-26T09:32:28;-0.10;99.90
5802;DHT22;2927;49.366;8.530;2023-01-26T09:34:54;-0.10;99.90
5802;DHT22;2927;49.366;8.530;2023-01-26T09:37:20;-0.20;99.90
5802;DHT22;2927;49.366;8.530;2023-01-26T09:39:46;-0.20;99.90
5802;DHT22;2927;49.366;8.530;2023-01-26T09:45:28;-0.10;99.90
5802;DHT22;2927;49.366;8.530;2023-01-26T09:48:07;-0.10;99.90
5802;DHT22;2927;49.366;8.530;2023-01-26T09:50:49;-0.10;99.90
5802;DHT22;2927;49.366;8.530;2023-01-26T09:53:42;-0.20;99.90
5802;DHT22;2927;49.366;8.530;2023-01-26T09:56:05;-0.20;99.90
5802;DHT22;2927;49.366;8.530;2023-01-26T09:58:36;-0.20;99.90
5802;DHT22;2927;49.366;8.530;2023-01-26T10:01:04;-0.20;99.90
5802;DHT22;2927;49.366;8.530;2023-01-26T10:03:40;-0.10;99.90
5802;DHT22;2927;49.366;8.530;2023-01-26T10:06:25;-0.20;99.90
5802;DHT22;2927;49.366;8.530;2023-01-26T10:08:54;-0.10;99.90
5802;DHT22;2927;49.366;8.530;2023-01-26T10:11:30;-0.20;99.90
5802;DHT22;2927;49.366;8.530;2023-01-26T10:14:00;-0.10;99.90
5802;DHT22;2927;49.366;8.530;2023-01-26T10:16:28;0.00;99.90
5802;DHT22;2927;49.366;8.530;2023-01-26T10:19:01;-0.10;99.90
5802;DHT22;2927;49.366;8.530;2023-01-26T10:21:32;0.00;99.90
5802;DHT22;2927;49.366;8.530;2023-01-26T10:24:00;0.00;99.90
5802;DHT22;2927;49.366;8.530;2023-01-26T10:26:31;0.20;99.90
5802;DHT22;2927;49.366;8.530;2023-01-26T10:28:57;0.20;99.90
5802;DHT22;2927;49.366;8.530;2023-01-26T10:31:27;0.10;99.90
5802;DHT22;2927;49.366;8.530;2023-01-26T10:34:13;0.10;99.90
5802;DHT22;2927;49.366;8.530;2023-01-26T10:36:42;0.00;99.90
5802;DHT22;2927;49.366;8.530;2023-01-26T10:39:09;0.10;99.90
5802;DHT22;2927;49.366;8.530;2023-01-26T10:41:36;0.10;99.90
5802;DHT22;2927;49.366;8.530;2023-01-26T10:46:40;0.10;88.10
5802;DHT22;2927;49.366;8.530;2023-01-26T10:51:41;0.20;31.40
5802;DHT22;2927;49.366;8.530;2023-01-26T10:54:26;0.20;23.60
5802;DHT22;2927;49.366;8.530;2023-01-26T10:56:58;0.20;41.20
5802;DHT22;2927;49.366;8.530;2023-01-26T10:59:36;0.20;24.40
5802;DHT22;2927;49.366;8.530;2023-01-26T11:12:47;0.30;63.30
5802;DHT22;2927;49.366;8.530;2023-01-26T11:15:21;0.30;50.50
5802;DHT22;2927;49.366;8.530;2023-01-26T11:17:51;0.30;72.60
5802;DHT22;2927;49.366;8.530;2023-01-26T11:26:05;0.40;1.00
5802;DHT22;2927;49.366;8.530;2023-01-26T11:29:05;0.50;1.00
5802;DHT22;2927;49.366;8.530;2023-01-26T11:31:58;0.50;1.00
5802;DHT22;2927;49.366;8.530;2023-01-26T11:34:49;0.50;1.00
5802;DHT22;2927;49.366;8.530;2023-01-26T11:40:18;0.50;1.00
5802;DHT22;2927;49.366;8.530;2023-01-26T11:43:11;0.50;1.00
5802;DHT22;2927;49.366;8.530;2023-01-26T11:48:26;0.50;1.00
5802;DHT22;2927;49.366;8.530;2023-01-26T11:51:08;0.60;1.00
5802;DHT22;2927;49.366;8.530;2023-01-26T11:56:24;0.60;1.00
5802;DHT22;2927;49.366;8.530;2023-01-26T11:58:53;0.70;1.00
5802;DHT22;2927;49.366;8.530;2023-01-26T12:01:41;0.70;1.00
5802;DHT22;2927;49.366;8.530;2023-01-26T12:04:19;0.70;1.00
5802;DHT22;2927;49.366;8.530;2023-01-26T12:06:47;0.60;1.00
5802;DHT22;2927;49.366;8.530;2023-01-26T12:09:47;0.50;1.00
5802;DHT22;2927;49.366;8.530;2023-01-26T12:15:21;0.60;1.00
5802;DHT22;2927;49.366;8.530;2023-01-26T12:20:45;0.90;1.00
5802;DHT22;2927;49.366;8.530;2023-01-26T12:25:49;0.90;1.00
5802;DHT22;2927;49.366;8.530;2023-01-26T12:33:32;0.60;1.00
5802;DHT22;2927;49.366;8.530;2023-01-26T12:44:12;0.50;1.00
5802;DHT22;2927;49.366;8.530;2023-01-26T12:46:48;0.60;1.00
5802;DHT22;2927;49.366;8.530;2023-01-26T12:49:23;0.50;1.00
5802;DHT22;2927;49.366;8.530;2023-01-26T12:52:06;0.60;1.00
5802;DHT22;2927;49.366;8.530;2023-01-26T12:57:20;0.60;1.00
5802;DHT22;2927;49.366;8.530;2023-01-26T12:59:46;0.60;1.00
5802;DHT22;2927;49.366;8.530;2023-01-26T13:02:22;0.60;1.00
5802;DHT22;2927;49.366;8.530;2023-01-26T13:04:49;0.70;1.00
5802;DHT22;2927;49.366;8.530;2023-01-26T13:07:51;0.80;1.00
5802;DHT22;2927;49.366;8.530;2023-01-26T13:15:19;0.40;1.00
5802;DHT22;2927;49.366;8.530;2023-01-26T13:17:53;0.40;1.00
5802;DHT22;2927;49.366;8.530;2023-01-26T13:20:28;0.40;1.00
5802;DHT22;2927;49.366;8.530;2023-01-26T13:26:19;0.50;1.00
5802;DHT22;2927;49.366;8.530;2023-01-26T13:31:28;0.60;1.00
5802;DHT22;2927;49.366;8.530;2023-01-26T13:33:54;0.60;1.00
5802;DHT22;2927;49.366;8.530;2023-01-26T13:36:23;0.60;1.00
5802;DHT22;2927;49.366;8.530;2023-01-26T13:39:00;0.60;1.00
5802;DHT22;2927;49.366;8.530;2023-01-26T13:41:27;0.50;1.00
5802;DHT22;2927;49.366;8.530;2023-01-26T13:44:06;0.40;1.00
5802;DHT22;2927;49.366;8.530;2023-01-26T13:46:41;0.50;1.00
5802;DHT22;2927;49.366;8.530;2023-01-26T13:51:48;0.40;1.00
5802;DHT22;2927;49.366;8.530;2023-01-26T13:54:14;0.40;1.00
5802;DHT22;2927;49.366;8.530;2023-01-26T13:56:41;0.30;1.00
5802;DHT22;2927;49.366;8.530;2023-01-26T13:59:11;0.40;1.00
5802;DHT22;2927;49.366;8.530;2023-01-26T14:01:42;0.50;1.00
5802;DHT22;2927;49.366;8.530;2023-01-26T14:04:13;0.50;1.00
5802;DHT22;2927;49.366;8.530;2023-01-26T14:06:42;0.40;1.00
5802;DHT22;2927;49.366;8.530;2023-01-26T14:09:12;0.20;1.00
5802;DHT22;2927;49.366;8.530;2023-01-26T14:14:25;0.40;1.00
5802;DHT22;2927;49.366;8.530;2023-01-26T14:16:51;0.50;1.00
5802;DHT22;2927;49.366;8.530;2023-01-26T14:19:20;0.50;1.00
5802;DHT22;2927;49.366;8.530;2023-01-26T14:21:56;0.30;1.00
5802;DHT22;2927;49.366;8.530;2023-01-26T14:24:34;0.30;1.00
5802;DHT22;2927;49.366;8.530;2023-01-26T14:27:01;0.20;1.00
5802;DHT22;2927;49.366;8.530;2023-01-26T14:29:29;0.20;1.00
5802;DHT22;2927;49.366;8.530;2023-01-26T14:31:58;0.30;1.00
5802;DHT22;2927;49.366;8.530;2023-01-26T14:34:26;0.30;1.00
5802;DHT22;2927;49.366;8.530;2023-01-26T14:37:25;0.30;1.00
5802;DHT22;2927;49.366;8.530;2023-01-26T14:42:47;0.20;1.00
5802;DHT22;2927;49.366;8.530;2023-01-26T14:45:14;0.30;1.00
5802;DHT22;2927;49.366;8.530;2023-01-26T14:47:40;0.20;1.00
5802;DHT22;2927;49.366;8.530;2023-01-26T14:50:27;0.20;1.00
5802;DHT22;2927;49.366;8.530;2023-01-26T14:52:57;0.20;1.00
5802;DHT22;2927;49.366;8.530;2023-01-26T14:55:35;0.20;1.00
5802;DHT22;2927;49.366;8.530;2023-01-26T14:58:02;0.20;1.00
5802;DHT22;2927;49.366;8.530;2023-01-26T15:00:36;0.20;1.00
5802;DHT22;2927;49.366;8.530;2023-01-26T15:03:13;0.20;1.00
5802;DHT22;2927;49.366;8.530;2023-01-26T15:05:41;0.20;1.00
5802;DHT22;2927;49.366;8.530;2023-01-26T15:08:21;0.10;1.00
5802;DHT22;2927;49.366;8.530;2023-01-26T15:11:00;0.10;1.00
5802;DHT22;2927;49.366;8.530;2023-01-26T15:13:46;0.10;1.00
5802;DHT22;2927;49.366;8.530;2023-01-26T15:16:19;0.10;1.00
5802;DHT22;2927;49.366;8.530;2023-01-26T15:18:44;0.10;1.00
5802;DHT22;2927;49.366;8.530;2023-01-26T15:21:18;0.20;1.00
5802;DHT22;2927;49.366;8.530;2023-01-26T15:23:49;0.10;1.00
5802;DHT22;2927;49.366;8.530;2023-01-26T15:26:32;0.10;1.00
5802;DHT22;2927;49.366;8.530;2023-01-26T15:29:27;0.00;1.00
5802;DHT22;2927;49.366;8.530;2023-01-26T15:31:55;0.00;1.00
5802;DHT22;2927;49.366;8.530;2023-01-26T15:34:36;0.10;1.00
5802;DHT22;2927;49.366;8.530;2023-01-26T15:37:31;0.00;1.00
5802;DHT22;2927;49.366;8.530;2023-01-26T15:39:58;0.00;1.00
5802;DHT22;2927;49.366;8.530;2023-01-26T15:42:25;-0.10;1.00
5802;DHT22;2927;49.366;8.530;2023-01-26T15:44:53;0.00;1.00
5802;DHT22;2927;49.366;8.530;2023-01-26T15:47:19;0.00;1.00
5802;DHT22;2927;49.366;8.530;2023-01-26T15:49:45;-0.10;1.00
5802;DHT22;2927;49.366;8.530;2023-01-26T15:54:43;-0.10;1.00
5802;DHT22;2927;49.366;8.530;2023-01-26T15:57:10;-0.10;1.00
5802;DHT22;2927;49.366;8.530;2023-01-26T15:59:36;-0.10;1.00
5802;DHT22;2927;49.366;8.530;2023-01-26T16:02:02;-0.10;1.00
5802;DHT22;2927;49.366;8.530;2023-01-26T16:04:28;-0.10;1.00
5802;DHT22;2927;49.366;8.530;2023-01-26T16:06:53;-0.10;1.00
5802;DHT22;2927;49.366;8.530;2023-01-26T16:09:19;-0.20;1.00
5802;DHT22;2927;49.366;8.530;2023-01-26T16:11:50;-0.10;1.00
5802;DHT22;2927;49.366;8.530;2023-01-26T16:14:17;0.00;1.00
5802;DHT22;2927;49.366;8.530;2023-01-26T16:16:43;0.00;1.00
5802;DHT22;2927;49.366;8.530;2023-01-26T16:19:09;0.00;1.00
5802;DHT22;2927;49.366;8.530;2023-01-26T16:21:36;0.00;1.00
5802;DHT22;2927;49.366;8.530;2023-01-26T16:24:03;0.00;1.00
5802;DHT22;2927;49.366;8.530;2023-01-26T16:26:29;0.00;1.00
5802;DHT22;2927;49.366;8.530;2023-01-26T16:28:55;0.00;1.00
5802;DHT22;2927;49.366;8.530;2023-01-26T16:31:32;0.00;1.00
5802;DHT22;2927;49.366;8.530;2023-01-26T16:33:58;-0.10;1.00
5802;DHT22;2927;49.366;8.530;2023-01-26T16:36:25;-0.10;1.00
5802;DHT22;2927;49.366;8.530;2023-01-26T16:38:50;-0.20;1.00
5802;DHT22;2927;49.366;8.530;2023-01-26T16:41:26;-0.10;1.00
5802;DHT22;2927;49.366;8.530;2023-01-26T16:43:54;0.00;1.00
5802;DHT22;2927;49.366;8.530;2023-01-26T16:46:20;-0.10;1.00
5802;DHT22;2927;49.366;8.530;2023-01-26T16:48:45;-0.20;1.00
5802;DHT22;2927;49.366;8.530;2023-01-26T16:53:46;-0.20;1.00
5802;DHT22;2927;49.366;8.530;2023-01-26T16:56:13;-0.20;1.00
5802;DHT22;2927;49.366;8.530;2023-01-26T16:58:39;-0.20;1.00
5802;DHT22;2927;49.366;8.530;2023-01-26T17:01:05;-0.20;1.00
5802;DHT22;2927;49.366;8.530;2023-01-26T17:03:31;-0.20;1.00
5802;DHT22;2927;49.366;8.530;2023-01-26T17:05:57;-0.10;1.00
5802;DHT22;2927;49.366;8.530;2023-01-26T17:08:22;-0.10;1.00
5802;DHT22;2927;49.366;8.530;2023-01-26T17:10:48;-0.10;1.00
5802;DHT22;2927;49.366;8.530;2023-01-26T17:13:15;-0.10;1.00
5802;DHT22;2927;49.366;8.530;2023-01-26T17:15:41;-0.10;1.00
5802;DHT22;2927;49.366;8.530;2023-01-26T17:18:11;-0.20;1.00
5802;DHT22;2927;49.366;8.530;2023-01-26T17:20:38;-0.20;1.00
5802;DHT22;2927;49.366;8.530;2023-01-26T17:23:04;-0.20;1.00
5802;DHT22;2927;49.366;8.530;2023-01-26T17:25:30;-0.10;1.00
5802;DHT22;2927;49.366;8.530;2023-01-26T17:27:55;-0.10;1.00
5802;DHT22;2927;49.366;8.530;2023-01-26T17:30:21;-0.10;1.00
5802;DHT22;2927;49.366;8.530;2023-01-26T17:32:46;0.00;1.00
5802;DHT22;2927;49.366;8.530;2023-01-26T17:35:12;0.00;1.00
5802;DHT22;2927;49.366;8.530;2023-01-26T17:37:38;0.00;1.00
5802;DHT22;2927;49.366;8.530;2023-01-26T17:40:05;0.00;1.00
5802;DHT22;2927;49.366;8.530;2023-01-26T17:42:31;0.00;1.00
5802;DHT22;2927;49.366;8.530;2023-01-26T17:44:59;0.00;1.00
5802;DHT22;2927;49.366;8.530;2023-01-26T17:47:26;0.00;1.00
5802;DHT22;2927;49.366;8.530;2023-01-26T17:49:51;0.00;1.00
5802;DHT22;2927;49.366;8.530;2023-01-26T17:52:17;0.00;1.00
5802;DHT22;2927;49.366;8.530;2023-01-26T17:54:42;-0.10;1.00
5802;DHT22;2927;49.366;8.530;2023-01-26T17:57:08;-0.10;1.00
5802;DHT22;2927;49.366;8.530;2023-01-26T17:59:34;-0.10;1.00
5802;DHT22;2927;49.366;8.530;2023-01-26T18:01:59;-0.10;1.00
5802;DHT22;2927;49.366;8.530;2023-01-26T18:04:25;-0.10;1.00
5802;DHT22;2927;49.366;8.530;2023-01-26T18:06:50;-0.20;1.00
5802;DHT22;2927;49.366;8.530;2023-01-26T18:09:16;-0.10;1.00
5802;DHT22;2927;49.366;8.530;2023-01-26T18:11:41;-0.20;1.00
5802;DHT22;2927;49.366;8.530;2023-01-26T18:14:07;-0.20;1.00